Archival Weather

Chicago O'Hare International

Chicago, Illinois (KORD)

Report from: Sunday, February 5, 2023 12:51 AM CST
Current time: Friday, June 21, 2024 6:47 PM CDT

Current weather – Weather history – Daily summaries
Weather forecast

Temperature3.9°C (39.0°F)
Wind chill-1.5°C (29.3°F)
Dew point-3.3°C (26.1°F)
Winds 17 kts (8.7 m/s, 19.6 mph) Southwest (220°)
Wind gusts 28 kts (14.4 m/s, 32.2 mph)
Peak wind 28 kts (14.4 m/s, 32.2 mph) South-Southwest (210°) at 06:45
Visibility10 mi. (16.1 km)
Clouds Ceiling: Broken clouds 16,000 ft. (4,877 m)
Broken clouds 25,000 ft. (7,620 m)
Altimeter29.87 in.Hg (1012 mB)
Relative humidity59 %
Density altitude-1,223 ft. (-373 m)
Sea-level pressure101.2 kPa (1012 mB, 29.88 in.Hg)
Remarks System requires maintenance
Automated weather observing station with precipitation discriminator
Flight conditions Visual Meteorological Conditions
Raw dataKORD 050651Z 22017G28KT 10SM BKN160 BKN250 04/M03 A2987 RMK AO2 PK WND 21028/0645 SLP119 T00391033 $
An error has occurred. This application may no longer respond until reloaded. Reload 🗙